createdAt,value
2023-09-10T00:02:27.645Z,16.30
2023-09-10T00:04:55.747Z,16.30
2023-09-10T00:07:23.864Z,16.20
2023-09-10T00:09:51.909Z,16.20
2023-09-10T00:12:19.981Z,16.20
2023-09-10T00:14:48.019Z,16.20
2023-09-10T00:17:16.098Z,16.10
2023-09-10T00:19:45.598Z,16.10
2023-09-10T00:22:13.718Z,16.10
2023-09-10T00:24:41.815Z,16.10
2023-09-10T00:27:09.860Z,16.00
2023-09-10T00:29:37.927Z,16.00
2023-09-10T00:32:06.450Z,16.00
2023-09-10T00:34:34.994Z,15.90
2023-09-10T00:37:04.655Z,15.90
2023-09-10T00:39:32.717Z,15.90
2023-09-10T00:42:00.765Z,15.90
2023-09-10T00:44:28.906Z,15.90
2023-09-10T00:46:58.084Z,15.80
2023-09-10T00:49:26.196Z,15.80
2023-09-10T00:51:54.229Z,15.80
2023-09-10T00:54:23.673Z,15.70
2023-09-10T00:56:51.793Z,15.70
2023-09-10T00:59:19.905Z,15.70
2023-09-10T01:01:49.797Z,15.70
2023-09-10T01:04:17.964Z,15.70
2023-09-10T01:06:46.049Z,15.70
2023-09-10T01:09:14.090Z,15.60
2023-09-10T01:11:47.241Z,15.60
2023-09-10T01:14:18.767Z,15.60
2023-09-10T01:16:49.386Z,15.50
2023-09-10T01:19:32.198Z,15.50
2023-09-10T01:22:02.978Z,15.50
2023-09-10T01:24:42.661Z,15.40
2023-09-10T01:27:10.767Z,15.40
2023-09-10T01:29:38.830Z,15.40
2023-09-10T01:32:08.269Z,15.30
2023-09-10T01:34:40.340Z,15.30
2023-09-10T01:37:12.619Z,15.30
2023-09-10T01:39:42.983Z,15.30
2023-09-10T01:42:11.051Z,15.30
2023-09-10T01:44:39.134Z,15.30
2023-09-10T01:47:07.302Z,15.20
2023-09-10T01:49:35.459Z,15.20
2023-09-10T01:52:04.128Z,15.20
2023-09-10T01:54:32.599Z,15.10
2023-09-10T01:57:02.212Z,15.10
2023-09-10T01:59:30.309Z,15.10
2023-09-10T02:01:58.488Z,15.10
2023-09-10T02:04:26.788Z,15.10
2023-09-10T02:06:54.959Z,15.00
2023-09-10T02:09:23.081Z,15.00
2023-09-10T02:11:51.164Z,15.00
2023-09-10T02:14:20.678Z,14.90
2023-09-10T02:16:48.853Z,14.90
2023-09-10T02:19:16.995Z,14.90
2023-09-10T02:21:45.113Z,14.90
2023-09-10T02:24:13.201Z,14.90
2023-09-10T02:26:41.309Z,14.90
2023-09-10T02:29:09.414Z,14.90
2023-09-10T02:31:38.971Z,14.80
2023-09-10T02:34:07.135Z,14.80
2023-09-10T02:36:35.239Z,14.80
2023-09-10T02:39:04.541Z,14.80
2023-09-10T02:41:32.647Z,14.70
2023-09-10T02:44:00.790Z,14.70
2023-09-10T02:46:29.310Z,14.70
2023-09-10T02:48:58.795Z,14.70
2023-09-10T02:51:27.046Z,14.70
2023-09-10T02:53:55.128Z,14.70
2023-09-10T02:56:23.315Z,14.60
2023-09-10T02:58:51.415Z,14.60
2023-09-10T03:01:19.581Z,14.60
2023-09-10T03:03:47.785Z,14.50
2023-09-10T03:06:17.317Z,14.50
2023-09-10T03:08:46.078Z,14.50
2023-09-10T03:11:14.267Z,14.50
2023-09-10T03:13:42.532Z,14.40
2023-09-10T03:16:10.949Z,14.40
2023-09-10T03:18:39.377Z,14.40
2023-09-10T03:21:07.641Z,14.40
2023-09-10T03:23:37.117Z,14.40
2023-09-10T03:26:05.305Z,14.40
2023-09-10T03:28:34.118Z,14.30
2023-09-10T03:31:02.371Z,14.30
2023-09-10T03:33:30.565Z,14.30
2023-09-10T03:35:58.737Z,14.30
2023-09-10T03:38:27.008Z,14.30
2023-09-10T03:40:56.559Z,14.30
2023-09-10T03:43:25.169Z,14.20
2023-09-10T03:45:54.627Z,14.20
2023-09-10T03:48:23.804Z,14.20
2023-09-10T03:50:51.953Z,14.20
2023-09-10T03:53:20.068Z,14.20
2023-09-10T03:55:48.891Z,14.10
2023-09-10T03:58:18.937Z,14.20
2023-09-10T04:00:47.697Z,14.10
2023-09-10T04:03:15.859Z,14.10
2023-09-10T04:05:44.036Z,14.10
2023-09-10T04:08:12.209Z,14.10
2023-09-10T04:10:40.426Z,14.00
2023-09-10T04:13:08.502Z,14.00
2023-09-10T04:15:37.954Z,14.00
2023-09-10T04:18:06.977Z,14.00
2023-09-10T04:20:35.236Z,14.00
2023-09-10T04:23:03.421Z,13.90
2023-09-10T04:25:32.906Z,13.90
2023-09-10T04:28:01.217Z,13.90
2023-09-10T04:30:29.704Z,13.90
2023-09-10T04:32:59.286Z,13.90
2023-09-10T04:35:27.508Z,13.90
2023-09-10T04:37:55.670Z,13.90
2023-09-10T04:40:24.171Z,13.80
2023-09-10T04:42:53.352Z,13.80
2023-09-10T04:45:21.792Z,13.80
2023-09-10T04:47:49.940Z,13.80
2023-09-10T04:50:19.562Z,13.70
2023-09-10T04:52:47.919Z,13.70
2023-09-10T04:55:17.319Z,13.80
2023-09-10T04:57:46.837Z,13.80
2023-09-10T05:00:15.581Z,13.80
2023-09-10T05:02:46.082Z,13.80
2023-09-10T05:05:16.784Z,13.80
2023-09-10T05:07:49.443Z,13.80
2023-09-10T05:10:18.277Z,13.90
2023-09-10T05:12:46.636Z,13.90
2023-09-10T05:15:14.810Z,13.90
2023-09-10T05:17:43.242Z,13.90
2023-09-10T05:20:12.483Z,14.00
2023-09-10T05:22:40.689Z,14.00
2023-09-10T05:25:11.012Z,14.00
2023-09-10T05:27:39.437Z,14.00
2023-09-10T05:30:08.801Z,14.10
2023-09-10T05:32:37.080Z,14.10
2023-09-10T05:35:05.706Z,14.20
2023-09-10T05:37:35.036Z,14.20
2023-09-10T05:40:03.969Z,14.30
2023-09-10T05:42:33.437Z,14.40
2023-09-10T05:45:01.681Z,14.50
2023-09-10T05:47:30.049Z,14.70
2023-09-10T05:49:58.461Z,14.90
2023-09-10T05:52:26.728Z,15.00
2023-09-10T05:54:54.963Z,15.10
2023-09-10T05:57:23.074Z,15.30
2023-09-10T05:59:52.580Z,15.50
2023-09-10T06:02:20.858Z,15.70
2023-09-10T06:04:49.174Z,15.80
2023-09-10T06:07:18.048Z,16.00
2023-09-10T06:09:47.302Z,16.20
2023-09-10T06:12:15.449Z,16.50
2023-09-10T06:14:43.539Z,16.70
2023-09-10T06:17:13.057Z,16.90
2023-09-10T06:19:41.299Z,17.10
2023-09-10T06:22:09.512Z,17.30
2023-09-10T06:24:37.601Z,17.50
2023-09-10T06:27:06.236Z,17.70
2023-09-10T06:29:34.478Z,18.00
2023-09-10T06:32:02.766Z,18.10
2023-09-10T06:34:33.631Z,18.30
2023-09-10T06:37:01.893Z,18.60
2023-09-10T06:39:30.421Z,18.90
2023-09-10T06:41:59.315Z,19.10
2023-09-10T06:44:36.924Z,19.30
2023-09-10T06:47:05.397Z,19.50
2023-09-10T06:49:34.880Z,19.70
2023-09-10T06:52:02.969Z,19.70
2023-09-10T06:54:31.059Z,19.90
2023-09-10T06:57:00.417Z,20.10
2023-09-10T06:59:28.667Z,20.30
2023-09-10T07:01:57.193Z,20.30
2023-09-10T07:04:26.178Z,20.50
2023-09-10T07:06:55.713Z,20.70
2023-09-10T07:09:24.570Z,20.90
2023-09-10T07:11:52.825Z,21.10
2023-09-10T07:14:21.101Z,21.30
2023-09-10T07:16:49.783Z,21.50
2023-09-10T07:19:18.057Z,21.70
2023-09-10T07:21:46.171Z,21.90
2023-09-10T07:24:15.733Z,22.00
2023-09-10T07:26:44.535Z,22.20
2023-09-10T07:29:17.274Z,22.40
2023-09-10T07:31:45.678Z,22.50
2023-09-10T07:34:13.824Z,22.70
2023-09-10T07:36:41.960Z,22.90
2023-09-10T07:39:10.046Z,23.10
2023-09-10T07:41:39.480Z,23.40
2023-09-10T07:44:07.960Z,23.60
2023-09-10T07:46:36.063Z,24.00
2023-09-10T07:49:04.145Z,24.20
2023-09-10T07:51:32.263Z,24.50
2023-09-10T07:54:00.576Z,24.40
2023-09-10T07:56:29.634Z,24.70
2023-09-10T07:58:59.393Z,25.00
2023-09-10T08:01:27.557Z,25.30
2023-09-10T08:03:55.756Z,25.50
2023-09-10T08:06:24.096Z,25.60
2023-09-10T08:08:52.223Z,25.90
2023-09-10T08:11:20.332Z,26.00
2023-09-10T08:13:48.687Z,25.90
2023-09-10T08:16:18.403Z,26.20
2023-09-10T08:18:47.130Z,26.60
2023-09-10T08:21:15.242Z,26.80
2023-09-10T08:23:43.903Z,27.10
2023-09-10T08:26:12.629Z,27.10
2023-09-10T08:28:41.176Z,27.40
2023-09-10T08:31:09.475Z,27.70
2023-09-10T08:33:38.935Z,27.90
2023-09-10T08:36:07.216Z,27.70
2023-09-10T08:38:35.514Z,27.80
2023-09-10T08:41:09.669Z,27.70
2023-09-10T08:43:41.557Z,27.90
2023-09-10T08:46:11.361Z,28.00
2023-09-10T08:48:43.006Z,28.10
2023-09-10T08:51:11.259Z,28.30
2023-09-10T08:53:39.659Z,28.40
2023-09-10T08:56:09.515Z,28.70
2023-09-10T08:58:39.454Z,28.90
2023-09-10T09:01:08.320Z,29.10
2023-09-10T09:03:36.751Z,29.20
2023-09-10T09:06:06.856Z,29.20
2023-09-10T09:08:35.776Z,29.50
2023-09-10T09:11:05.531Z,29.60
2023-09-10T09:13:35.635Z,29.80
2023-09-10T09:16:04.512Z,29.70
2023-09-10T09:18:33.270Z,30.20
2023-09-10T09:21:03.989Z,30.30
2023-09-10T09:23:34.613Z,30.30
2023-09-10T09:26:03.699Z,30.70
2023-09-10T09:28:32.712Z,30.70
2023-09-10T09:31:00.825Z,31.20
2023-09-10T09:33:28.942Z,31.20
2023-09-10T09:35:57.042Z,31.70
2023-09-10T09:38:25.174Z,31.50
2023-09-10T09:40:54.851Z,31.60
2023-09-10T09:43:22.988Z,31.70
2023-09-10T09:45:51.064Z,31.90
2023-09-10T09:48:19.320Z,32.10
2023-09-10T09:50:48.317Z,32.30
2023-09-10T09:53:17.147Z,32.50
2023-09-10T09:55:46.111Z,32.40
2023-09-10T09:58:15.662Z,32.40
2023-09-10T10:00:43.716Z,32.50
2023-09-10T10:03:12.519Z,32.50
2023-09-10T10:05:40.669Z,32.90
2023-09-10T10:08:09.078Z,32.80
2023-09-10T10:10:37.224Z,32.90
2023-09-10T10:13:06.373Z,32.80
2023-09-10T10:15:35.811Z,33.10
2023-09-10T10:18:03.990Z,33.10
2023-09-10T10:20:32.359Z,33.20
2023-09-10T10:23:08.601Z,33.50
2023-09-10T10:25:47.511Z,33.70
2023-09-10T10:28:15.680Z,33.50
2023-09-10T10:30:48.791Z,33.30
2023-09-10T10:33:17.002Z,33.40
2023-09-10T10:36:02.859Z,34.00
2023-09-10T10:38:32.532Z,34.10
2023-09-10T10:41:00.671Z,34.00
2023-09-10T10:43:28.972Z,34.10
2023-09-10T10:45:58.862Z,33.90
2023-09-10T10:48:27.809Z,34.20
2023-09-10T10:50:56.467Z,34.00
2023-09-10T10:53:26.120Z,33.80
2023-09-10T10:55:56.804Z,33.90
2023-09-10T10:58:25.362Z,34.20
2023-09-10T11:00:54.266Z,34.20
2023-09-10T11:03:23.802Z,34.70
2023-09-10T11:06:08.498Z,35.10
2023-09-10T11:08:38.548Z,34.50
2023-09-10T11:11:07.802Z,34.50
2023-09-10T11:13:36.138Z,34.40
2023-09-10T11:16:16.911Z,34.30
2023-09-10T11:18:46.568Z,34.40
2023-09-10T11:21:15.212Z,34.30
2023-09-10T11:24:04.085Z,34.00
2023-09-10T11:26:32.983Z,34.10
2023-09-10T11:29:01.705Z,33.90
2023-09-10T11:31:40.347Z,34.00
2023-09-10T11:34:40.051Z,34.20
2023-09-10T11:37:09.357Z,34.20
2023-09-10T11:39:38.036Z,33.80
2023-09-10T11:42:09.333Z,33.70
2023-09-10T11:44:38.348Z,34.00
2023-09-10T11:47:06.748Z,34.20
2023-09-10T11:49:34.955Z,33.80
2023-09-10T11:52:04.757Z,33.90
2023-09-10T11:54:32.857Z,33.90
2023-09-10T11:57:01.112Z,33.70
2023-09-10T11:59:31.647Z,34.10
2023-09-10T12:02:00.252Z,34.00
2023-09-10T12:04:29.739Z,33.90
2023-09-10T12:06:57.920Z,33.80
2023-09-10T12:09:30.505Z,33.80
2023-09-10T12:11:59.185Z,33.70
2023-09-10T12:14:27.388Z,34.20
2023-09-10T12:16:55.532Z,34.20
2023-09-10T12:19:23.641Z,34.10
2023-09-10T12:21:52.485Z,34.10
2023-09-10T12:24:20.579Z,34.00
2023-09-10T12:26:50.032Z,33.80
2023-09-10T12:29:18.140Z,33.60
2023-09-10T12:31:46.275Z,33.50
2023-09-10T12:34:16.246Z,33.70
2023-09-10T12:36:44.379Z,33.80
2023-09-10T12:39:20.080Z,33.50
2023-09-10T12:41:51.542Z,33.50
2023-09-10T12:44:19.667Z,33.40
2023-09-10T12:46:47.896Z,33.30
2023-09-10T12:49:16.062Z,33.10
2023-09-10T12:51:44.175Z,33.10
2023-09-10T12:54:12.555Z,33.20
2023-09-10T12:56:40.851Z,33.30
2023-09-10T12:59:11.020Z,33.00
2023-09-10T13:01:39.949Z,32.70
2023-09-10T13:04:08.376Z,32.60
2023-09-10T13:06:36.513Z,32.60
2023-09-10T13:09:05.563Z,32.60
2023-09-10T13:11:34.805Z,32.90
2023-09-10T13:14:03.922Z,33.10
2023-09-10T13:16:33.405Z,32.80
2023-09-10T13:19:02.063Z,32.90
2023-09-10T13:21:30.246Z,32.90
2023-09-10T13:23:58.412Z,32.80
2023-09-10T13:26:26.570Z,32.60
2023-09-10T13:28:54.720Z,32.60
2023-09-10T13:31:22.846Z,32.70
2023-09-10T13:33:53.089Z,32.80
2023-09-10T13:36:21.207Z,33.00
2023-09-10T13:38:50.551Z,33.00
2023-09-10T13:41:18.720Z,32.70
2023-09-10T13:43:46.829Z,32.60
2023-09-10T13:46:14.966Z,32.50
2023-09-10T13:48:43.376Z,32.30
2023-09-10T13:51:12.830Z,32.20
2023-09-10T13:53:44.064Z,32.20
2023-09-10T13:56:12.516Z,32.00
2023-09-10T13:58:40.639Z,31.90
2023-09-10T14:01:11.077Z,31.80
2023-09-10T14:03:39.970Z,31.80
2023-09-10T14:06:09.250Z,31.70
2023-09-10T14:08:40.198Z,31.60
2023-09-10T14:11:08.489Z,31.50
2023-09-10T14:13:36.656Z,31.40
2023-09-10T14:16:04.979Z,31.30
2023-09-10T14:18:33.616Z,31.30
2023-09-10T14:21:01.698Z,31.40
2023-09-10T14:23:31.961Z,31.40
2023-09-10T14:26:01.512Z,31.40
2023-09-10T14:28:29.662Z,31.40
2023-09-10T14:30:57.721Z,31.40
2023-09-10T14:33:28.434Z,31.40
2023-09-10T14:35:56.561Z,31.30
2023-09-10T14:38:24.794Z,31.20
2023-09-10T14:40:52.942Z,31.20
2023-09-10T14:43:22.396Z,31.30
2023-09-10T14:45:50.574Z,31.20
2023-09-10T14:48:18.715Z,31.20
2023-09-10T14:50:46.878Z,31.10
2023-09-10T14:53:15.015Z,31.10
2023-09-10T14:55:43.180Z,31.00
2023-09-10T14:58:11.253Z,30.90
2023-09-10T15:00:41.824Z,30.90
2023-09-10T15:03:10.072Z,30.90
2023-09-10T15:05:38.298Z,30.70
2023-09-10T15:08:08.297Z,30.70
2023-09-10T15:10:36.435Z,30.70
2023-09-10T15:13:04.595Z,30.70
2023-09-10T15:15:32.693Z,30.60
2023-09-10T15:18:02.174Z,30.50
2023-09-10T15:20:30.391Z,30.50
2023-09-10T15:22:58.561Z,30.50
2023-09-10T15:25:26.749Z,30.40
2023-09-10T15:27:54.850Z,30.60
2023-09-10T15:30:22.918Z,30.90
2023-09-10T15:32:51.109Z,31.10
2023-09-10T15:35:20.923Z,31.30
2023-09-10T15:37:49.035Z,31.10
2023-09-10T15:40:17.333Z,30.90
2023-09-10T15:42:45.446Z,30.70
2023-09-10T15:45:13.564Z,30.70
2023-09-10T15:47:41.714Z,30.50
2023-09-10T15:50:09.998Z,30.30
2023-09-10T15:52:39.897Z,30.10
2023-09-10T15:55:08.447Z,30.00
2023-09-10T15:57:36.600Z,29.80
2023-09-10T16:00:06.360Z,29.70
2023-09-10T16:02:40.089Z,29.50
2023-09-10T16:05:09.190Z,29.40
2023-09-10T16:07:37.373Z,29.30
2023-09-10T16:10:07.719Z,29.10
2023-09-10T16:12:36.170Z,28.90
2023-09-10T16:15:04.874Z,28.90
2023-09-10T16:17:33.066Z,28.60
2023-09-10T16:20:01.260Z,28.60
2023-09-10T16:22:32.478Z,28.40
2023-09-10T16:25:00.730Z,28.20
2023-09-10T16:27:30.210Z,28.20
2023-09-10T16:29:58.380Z,28.00
2023-09-10T16:32:26.635Z,27.90
2023-09-10T16:34:54.795Z,27.80
2023-09-10T16:37:22.892Z,27.70
2023-09-10T16:39:50.989Z,27.60
2023-09-10T16:42:19.088Z,27.50
2023-09-10T16:44:49.116Z,27.40
2023-09-10T16:47:17.373Z,27.30
2023-09-10T16:49:45.519Z,27.20
2023-09-10T16:52:13.618Z,27.20
2023-09-10T16:54:41.736Z,27.00
2023-09-10T16:57:09.825Z,26.90
2023-09-10T16:59:37.943Z,26.80
2023-09-10T17:02:08.219Z,26.70
2023-09-10T17:04:36.383Z,26.60
2023-09-10T17:07:04.653Z,26.50
2023-09-10T17:09:32.744Z,26.40
2023-09-10T17:12:01.189Z,26.30
2023-09-10T17:14:29.262Z,26.20
2023-09-10T17:16:57.378Z,26.10
2023-09-10T17:19:26.895Z,26.00
2023-09-10T17:21:55.243Z,26.00
2023-09-10T17:24:24.395Z,25.90
2023-09-10T17:26:52.455Z,25.90
2023-09-10T17:29:20.571Z,25.70
2023-09-10T17:31:48.702Z,25.50
2023-09-10T17:34:16.819Z,25.30
2023-09-10T17:36:46.247Z,25.30
2023-09-10T17:39:14.360Z,25.10
2023-09-10T17:41:42.560Z,25.00
2023-09-10T17:44:10.728Z,25.00
2023-09-10T17:46:39.598Z,24.90
2023-09-10T17:49:08.026Z,24.80
2023-09-10T17:51:36.113Z,24.70
2023-09-10T17:54:05.718Z,24.60
2023-09-10T17:56:33.831Z,24.50
2023-09-10T17:59:02.024Z,24.40
2023-09-10T18:01:33.509Z,24.40
2023-09-10T18:04:04.301Z,24.40
2023-09-10T18:06:32.515Z,24.30
2023-09-10T18:09:01.529Z,24.20
2023-09-10T18:11:31.029Z,24.20
2023-09-10T18:13:59.125Z,24.10
2023-09-10T18:16:27.250Z,24.10
2023-09-10T18:18:55.847Z,23.90
2023-09-10T18:21:24.133Z,23.90
2023-09-10T18:23:52.244Z,23.70
2023-09-10T18:26:21.724Z,23.60
2023-09-10T18:28:51.229Z,23.50
2023-09-10T18:31:19.335Z,23.40
2023-09-10T18:33:50.289Z,23.40
2023-09-10T18:36:18.924Z,23.30
2023-09-10T18:38:53.276Z,23.20
2023-09-10T18:41:21.455Z,23.20
2023-09-10T18:43:50.977Z,23.10
2023-09-10T18:46:19.109Z,23.00
2023-09-10T18:48:47.476Z,22.90
2023-09-10T18:51:15.542Z,22.90
2023-09-10T18:53:43.968Z,22.90
2023-09-10T18:56:12.212Z,22.80
2023-09-10T18:58:40.349Z,22.70
2023-09-10T19:01:09.793Z,22.70
2023-09-10T19:03:38.082Z,22.60
2023-09-10T19:06:06.560Z,22.50
2023-09-10T19:08:34.721Z,22.30
2023-09-10T19:11:03.001Z,22.40
2023-09-10T19:13:31.123Z,22.30
2023-09-10T19:16:00.213Z,22.30
2023-09-10T19:18:29.780Z,22.30
2023-09-10T19:20:58.210Z,22.30
2023-09-10T19:23:26.336Z,22.20
2023-09-10T19:25:55.105Z,22.20
2023-09-10T19:28:23.179Z,22.30
2023-09-10T19:30:52.925Z,22.30
2023-09-10T19:33:21.154Z,22.30
2023-09-10T19:35:50.718Z,22.40
2023-09-10T19:38:18.842Z,22.40
2023-09-10T19:40:50.165Z,22.50
2023-09-10T19:43:18.273Z,22.50
2023-09-10T19:45:46.389Z,22.50
2023-09-10T19:48:14.565Z,22.50
2023-09-10T19:50:42.982Z,22.50
2023-09-10T19:53:12.472Z,22.40
2023-09-10T19:55:40.766Z,22.50
2023-09-10T19:58:08.859Z,22.40
2023-09-10T20:00:36.992Z,22.30
2023-09-10T20:03:05.443Z,22.30
2023-09-10T20:05:33.708Z,22.20
2023-09-10T20:08:01.809Z,22.10
2023-09-10T20:10:31.219Z,22.10
2023-09-10T20:12:59.375Z,22.00
2023-09-10T20:15:27.462Z,22.00
2023-09-10T20:17:55.718Z,22.00
2023-09-10T20:20:23.902Z,21.90
2023-09-10T20:22:52.019Z,21.90
2023-09-10T20:25:20.263Z,21.90
2023-09-10T20:27:51.523Z,21.90
2023-09-10T20:30:19.767Z,21.90
2023-09-10T20:32:48.076Z,21.90
2023-09-10T20:35:16.411Z,21.80
2023-09-10T20:37:44.558Z,21.80
2023-09-10T20:40:14.686Z,21.80
2023-09-10T20:42:42.788Z,21.80
2023-09-10T20:45:12.579Z,21.80
2023-09-10T20:47:40.673Z,21.70
2023-09-10T20:50:09.472Z,21.80
2023-09-10T20:52:38.303Z,21.70
2023-09-10T20:55:07.267Z,21.70
2023-09-10T20:57:35.326Z,21.70
2023-09-10T21:00:04.376Z,21.70
2023-09-10T21:02:34.208Z,21.60
2023-09-10T21:05:04.653Z,21.60
2023-09-10T21:07:34.856Z,21.60
2023-09-10T21:10:03.141Z,21.60
2023-09-10T21:12:31.223Z,21.50
2023-09-10T21:14:59.328Z,21.50
2023-09-10T21:17:27.478Z,21.40
2023-09-10T21:19:56.967Z,21.40
2023-09-10T21:22:25.060Z,21.30
2023-09-10T21:27:26.115Z,21.30
2023-09-10T21:29:54.590Z,21.30
2023-09-10T21:32:22.798Z,21.30
2023-09-10T21:34:51.038Z,21.20
2023-09-10T21:37:20.495Z,21.20
2023-09-10T21:39:51.920Z,21.20
2023-09-10T21:42:20.174Z,21.10
2023-09-10T21:44:48.326Z,21.00
2023-09-10T21:47:16.480Z,21.00
2023-09-10T21:49:44.617Z,21.00
2023-09-10T21:52:12.711Z,21.00
2023-09-10T21:54:42.167Z,21.00
2023-09-10T21:57:10.256Z,20.90
2023-09-10T21:59:38.363Z,20.90
2023-09-10T22:02:06.798Z,20.90
2023-09-10T22:04:34.894Z,20.90
2023-09-10T22:07:04.246Z,20.80
2023-09-10T22:09:33.733Z,20.80
2023-09-10T22:12:03.251Z,20.80
2023-09-10T22:14:31.415Z,20.80
2023-09-10T22:16:59.494Z,20.80
2023-09-10T22:19:27.598Z,20.70
2023-09-10T22:21:55.679Z,20.70
2023-09-10T22:24:23.806Z,20.60
2023-09-10T22:26:51.987Z,20.60
2023-09-10T22:29:21.514Z,20.50
2023-09-10T22:31:49.792Z,20.50
2023-09-10T22:34:17.956Z,20.50
2023-09-10T22:36:46.069Z,20.50
2023-09-10T22:39:14.306Z,20.50
2023-09-10T22:41:42.454Z,20.40
2023-09-10T22:44:11.797Z,20.40
2023-09-10T22:46:41.323Z,20.40
2023-09-10T22:49:10.256Z,20.30
2023-09-10T22:51:38.854Z,20.30
2023-09-10T22:54:07.247Z,20.30
2023-09-10T22:56:35.853Z,20.30
2023-09-10T22:59:03.998Z,20.20
2023-09-10T23:01:34.298Z,20.20
2023-09-10T23:04:03.934Z,20.20
2023-09-10T23:06:32.199Z,20.20
2023-09-10T23:09:00.281Z,20.20
2023-09-10T23:11:28.421Z,20.10
2023-09-10T23:13:56.528Z,20.00
2023-09-10T23:16:24.680Z,20.00
2023-09-10T23:18:52.776Z,19.90
2023-09-10T23:21:22.693Z,19.90
2023-09-10T23:23:50.809Z,19.90
2023-09-10T23:26:18.964Z,19.90
2023-09-10T23:28:47.060Z,19.90
2023-09-10T23:31:15.478Z,19.90
2023-09-10T23:33:43.593Z,19.80
2023-09-10T23:36:11.689Z,19.80
2023-09-10T23:38:41.440Z,19.80
2023-09-10T23:41:09.734Z,19.80
2023-09-10T23:43:39.876Z,19.70
2023-09-10T23:46:08.105Z,19.70
2023-09-10T23:48:36.284Z,19.70
2023-09-10T23:51:04.443Z,19.70
2023-09-10T23:53:32.614Z,19.70
2023-09-10T23:56:02.163Z,19.60
2023-09-10T23:58:32.061Z,19.60
